Terminal Aerodrome Forecast
Issued by NWS Cleveland, OH

Home | Current Version | Previous Version | Graphics & Text | Print | Product List | Glossary Off
Versions: 1 2 3 4 5 6 7 8 9 10 11 12 13 14 15 16 17 18 19 20 21 22 23 24 25 26 27

924
FTUS41 KCLE 081735
TAFCLE
TAF
KCLE 081735Z 0818/0924 26018G28KT 6SM -SHSN OVC035
      TEMPO 0819/0823 5SM -SHSN OVC025
     FM082300 26015G25KT 3SM -SHSN OVC015
      TEMPO 0900/0903 2SM -SHSN BKN008
     FM090300 27014G22KT 1SM -SHSN OVC008
     FM091200 27012KT 5SM -SHSN OVC012=

USA.gov is the U.S. government's official web portal to all federal, state and local government web resources and services.